createdAt,value
2018-06-08T00:01:05.374Z,19.20
2018-06-08T00:03:33.610Z,18.80
2018-06-08T00:06:01.801Z,20.17
2018-06-08T00:08:30.009Z,20.17
2018-06-08T00:10:58.200Z,18.98
2018-06-08T00:13:26.408Z,19.30
2018-06-08T00:15:54.633Z,15.68
2018-06-08T00:18:22.877Z,16.52
2018-06-08T00:20:51.096Z,18.82
2018-06-08T00:23:19.258Z,17.05
2018-06-08T00:25:47.477Z,20.70
2018-06-08T00:28:15.725Z,20.55
2018-06-08T00:30:43.924Z,19.00
2018-06-08T00:33:12.150Z,24.82
2018-06-08T00:35:40.340Z,20.37
2018-06-08T00:38:08.613Z,22.85
2018-06-08T00:40:36.828Z,23.20
2018-06-08T00:43:05.069Z,22.95
2018-06-08T00:45:33.297Z,20.50
2018-06-08T00:48:01.480Z,23.07
2018-06-08T00:50:29.685Z,24.52
2018-06-08T00:52:57.926Z,22.58
2018-06-08T00:55:26.125Z,25.08
2018-06-08T00:57:54.317Z,19.42
2018-06-08T01:00:22.496Z,21.40
2018-06-08T01:02:50.717Z,22.27
2018-06-08T01:05:18.992Z,22.27
2018-06-08T01:07:47.170Z,21.15
2018-06-08T01:10:15.381Z,17.35
2018-06-08T01:12:43.546Z,19.80
2018-06-08T01:15:11.765Z,23.10
2018-06-08T01:17:39.997Z,22.00
2018-06-08T01:20:08.194Z,22.60
2018-06-08T01:22:36.447Z,22.25
2018-06-08T01:25:04.637Z,23.38
2018-06-08T01:27:32.857Z,21.15
2018-06-08T01:30:01.077Z,20.92
2018-06-08T01:32:29.477Z,19.60
2018-06-08T01:34:57.713Z,17.57
2018-06-08T01:37:26.145Z,18.77
2018-06-08T01:39:54.388Z,19.23
2018-06-08T01:42:22.592Z,19.92
2018-06-08T01:44:50.826Z,19.57
2018-06-08T01:47:19.044Z,21.40
2018-06-08T01:49:47.261Z,18.77
2018-06-08T01:52:15.486Z,19.80
2018-06-08T01:54:43.701Z,16.30
2018-06-08T01:57:11.873Z,18.00
2018-06-08T01:59:40.101Z,16.97
2018-06-08T02:02:08.305Z,16.85
2018-06-08T02:04:36.528Z,18.37
2018-06-08T02:07:04.748Z,18.40
2018-06-08T02:09:32.929Z,19.05
2018-06-08T02:12:01.155Z,14.87
2018-06-08T02:14:29.333Z,17.00
2018-06-08T02:16:57.585Z,16.87
2018-06-08T02:19:25.813Z,16.85
2018-06-08T02:21:53.744Z,14.73
2018-06-08T02:24:21.960Z,17.37
2018-06-08T02:26:50.156Z,16.57
2018-06-08T02:29:18.494Z,16.10
2018-06-08T02:31:46.737Z,16.60
2018-06-08T02:34:14.911Z,17.43
2018-06-08T02:36:43.125Z,16.30
2018-06-08T02:39:11.313Z,15.08
2018-06-08T02:41:39.548Z,15.72
2018-06-08T02:44:07.774Z,16.60
2018-06-08T02:46:35.944Z,16.07
2018-06-08T02:49:04.225Z,16.17
2018-06-08T02:51:32.405Z,16.15
2018-06-08T02:54:00.632Z,15.98
2018-06-08T02:56:28.846Z,16.55
2018-06-08T02:58:57.029Z,16.70
2018-06-08T03:01:25.213Z,16.73
2018-06-08T03:03:53.397Z,17.57
2018-06-08T03:06:21.621Z,17.87
2018-06-08T03:08:49.881Z,15.35
2018-06-08T03:11:18.065Z,17.77
2018-06-08T03:13:46.254Z,15.80
2018-06-08T03:16:14.441Z,17.42
2018-06-08T03:18:42.652Z,16.12
2018-06-08T03:21:10.898Z,16.65
2018-06-08T03:23:39.090Z,15.60
2018-06-08T03:26:07.313Z,16.52
2018-06-08T03:28:35.481Z,16.63
2018-06-08T03:31:03.697Z,15.95
2018-06-08T03:33:31.893Z,14.58
2018-06-08T03:36:00.112Z,14.70
2018-06-08T03:38:28.316Z,16.73
2018-06-08T03:40:56.559Z,15.30
2018-06-08T03:43:24.849Z,17.85
2018-06-08T03:45:53.126Z,14.45
2018-06-08T03:48:21.345Z,15.70
2018-06-08T03:50:49.558Z,15.48
2018-06-08T03:53:17.741Z,15.25
2018-06-08T03:55:45.954Z,14.80
2018-06-08T03:58:14.169Z,15.95
2018-06-08T04:00:42.345Z,14.93
2018-06-08T04:03:10.565Z,15.60
2018-06-08T04:05:38.749Z,14.70
2018-06-08T04:08:06.985Z,13.58
2018-06-08T04:10:35.206Z,14.28
2018-06-08T04:13:03.381Z,14.53
2018-06-08T04:15:31.617Z,14.20
2018-06-08T04:17:59.780Z,15.35
2018-06-08T04:20:27.993Z,15.40
2018-06-08T04:22:56.196Z,16.67
2018-06-08T04:25:24.368Z,16.07
2018-06-08T04:27:52.573Z,19.30
2018-06-08T04:30:20.765Z,19.02
2018-06-08T04:32:49.057Z,18.65
2018-06-08T04:35:17.254Z,20.75
2018-06-08T04:37:46.434Z,20.50
2018-06-08T04:40:14.657Z,20.27
2018-06-08T04:42:42.841Z,19.80
2018-06-08T04:45:11.057Z,19.32
2018-06-08T04:47:39.333Z,17.92
2018-06-08T04:50:07.589Z,18.60
2018-06-08T04:52:35.934Z,16.90
2018-06-08T04:55:04.177Z,15.05
2018-06-08T04:57:32.934Z,17.67
2018-06-08T05:00:01.533Z,20.95
2018-06-08T05:02:30.563Z,19.62
2018-06-08T05:04:59.271Z,20.43
2018-06-08T05:07:27.930Z,18.15
2018-06-08T05:09:56.698Z,19.27
2018-06-08T05:12:25.468Z,21.85
2018-06-08T05:14:54.112Z,21.50
2018-06-08T05:17:22.334Z,21.05
2018-06-08T05:19:50.514Z,23.67
2018-06-08T05:22:18.721Z,24.95
2018-06-08T05:24:46.941Z,23.70
2018-06-08T05:27:15.129Z,25.03
2018-06-08T05:29:43.361Z,23.70
2018-06-08T05:32:11.541Z,21.85
2018-06-08T05:34:39.786Z,19.67
2018-06-08T05:37:08.012Z,18.30
2018-06-08T05:39:36.189Z,20.10
2018-06-08T05:42:04.437Z,19.12
2018-06-08T05:44:32.629Z,19.87
2018-06-08T05:47:00.856Z,20.15
2018-06-08T05:49:29.119Z,20.40
2018-06-08T05:51:57.297Z,18.25
2018-06-08T05:54:25.594Z,18.80
2018-06-08T05:56:53.777Z,18.07
2018-06-08T05:59:22.013Z,19.02
2018-06-08T06:01:50.241Z,18.73
2018-06-08T06:04:18.449Z,18.20
2018-06-08T06:06:46.698Z,17.37
2018-06-08T06:09:14.878Z,20.75
2018-06-08T06:11:43.209Z,20.92
2018-06-08T06:14:11.430Z,23.87
2018-06-08T06:16:39.628Z,26.10
2018-06-08T06:19:07.876Z,25.67
2018-06-08T06:21:36.061Z,24.95
2018-06-08T06:24:04.301Z,25.50
2018-06-08T06:26:32.502Z,25.80
2018-06-08T06:29:00.689Z,21.10
2018-06-08T06:31:28.902Z,20.60
2018-06-08T06:33:57.072Z,22.60
2018-06-08T06:36:25.285Z,19.32
2018-06-08T06:38:53.503Z,22.83
2018-06-08T06:41:21.706Z,23.95
2018-06-08T06:43:49.982Z,22.45
2018-06-08T06:46:18.268Z,23.77
2018-06-08T06:48:46.501Z,22.90
2018-06-08T06:51:14.713Z,23.47
2018-06-08T06:53:42.917Z,24.70
2018-06-08T06:56:10.941Z,21.40
2018-06-08T06:58:39.129Z,22.20
2018-06-08T07:01:07.353Z,24.82
2018-06-08T07:03:35.569Z,23.15
2018-06-08T07:06:03.792Z,22.27
2018-06-08T07:08:32.070Z,22.93
2018-06-08T07:11:00.265Z,27.80
2018-06-08T07:13:28.517Z,26.45
2018-06-08T07:15:56.736Z,26.20
2018-06-08T07:18:24.921Z,25.40
2018-06-08T07:20:53.158Z,29.32
2018-06-08T07:23:21.337Z,28.65
2018-06-08T07:25:49.553Z,27.50
2018-06-08T07:28:17.797Z,29.50
2018-06-08T07:30:45.990Z,28.42
2018-06-08T07:33:14.205Z,29.87
2018-06-08T07:35:42.400Z,27.27
2018-06-08T07:38:10.641Z,27.05
2018-06-08T07:40:38.890Z,27.82
2018-06-08T07:43:07.090Z,27.67
2018-06-08T07:45:35.317Z,28.20
2018-06-08T07:48:03.515Z,28.98
2018-06-08T07:50:31.752Z,28.93
2018-06-08T07:52:59.965Z,22.73
2018-06-08T07:55:28.195Z,22.73
2018-06-08T07:57:56.434Z,23.30
2018-06-08T08:00:24.671Z,20.85
2018-06-08T08:02:52.896Z,22.10
2018-06-08T08:05:21.165Z,22.85
2018-06-08T08:07:49.360Z,24.23
2018-06-08T08:10:17.577Z,26.77
2018-06-08T08:12:45.762Z,22.27
2018-06-08T08:15:13.989Z,23.33
2018-06-08T08:17:42.241Z,24.65
2018-06-08T08:20:10.437Z,24.90
2018-06-08T08:22:38.634Z,24.87
2018-06-08T08:25:06.835Z,27.50
2018-06-08T08:27:35.065Z,26.12
2018-06-08T08:30:03.406Z,24.25
2018-06-08T08:32:31.601Z,21.57
2018-06-08T08:34:59.821Z,23.47
2018-06-08T08:37:28.005Z,22.37
2018-06-08T08:39:56.201Z,20.32
2018-06-08T08:42:24.717Z,22.45
2018-06-08T08:44:52.921Z,18.50
2018-06-08T08:47:21.181Z,20.92
2018-06-08T08:49:49.404Z,19.45
2018-06-08T08:52:17.684Z,20.50
2018-06-08T08:54:45.910Z,21.87
2018-06-08T08:57:14.130Z,17.87
2018-06-08T08:59:42.373Z,20.15
2018-06-08T09:02:10.589Z,21.07
2018-06-08T09:04:38.875Z,21.80
2018-06-08T09:07:07.118Z,21.85
2018-06-08T09:09:35.309Z,20.30
2018-06-08T09:12:03.590Z,24.15
2018-06-08T09:14:31.847Z,23.50
2018-06-08T09:17:00.085Z,23.20
2018-06-08T09:19:28.354Z,22.90
2018-06-08T09:21:56.562Z,23.45
2018-06-08T09:24:24.781Z,24.75
2018-06-08T09:26:52.987Z,22.47
2018-06-08T09:29:21.221Z,23.12
2018-06-08T09:31:49.484Z,25.68
2018-06-08T09:34:17.686Z,26.27
2018-06-08T09:36:45.904Z,28.47
2018-06-08T09:39:14.085Z,23.65
2018-06-08T09:41:42.332Z,24.02
2018-06-08T09:44:10.570Z,21.42
2018-06-08T09:46:38.761Z,22.27
2018-06-08T09:49:07.009Z,23.55
2018-06-08T09:51:35.222Z,20.77
2018-06-08T09:54:03.555Z,22.80
2018-06-08T09:56:31.873Z,21.87
2018-06-08T09:59:00.144Z,23.05
2018-06-08T10:01:28.508Z,19.33
2018-06-08T10:03:56.720Z,20.70
2018-06-08T10:06:24.997Z,21.15
2018-06-08T10:08:53.264Z,20.72
2018-06-08T10:11:21.597Z,19.32
2018-06-08T10:13:49.861Z,22.32
2018-06-08T10:16:18.593Z,18.90
2018-06-08T10:18:46.821Z,22.02
2018-06-08T10:21:15.037Z,20.90
2018-06-08T10:23:43.709Z,19.23
2018-06-08T10:26:12.027Z,20.37
2018-06-08T10:28:40.989Z,21.23
2018-06-08T10:31:09.220Z,18.48
2018-06-08T10:33:37.467Z,19.20
2018-06-08T10:36:05.764Z,19.25
2018-06-08T10:38:33.997Z,19.00
2018-06-08T10:41:02.153Z,17.82
2018-06-08T10:43:30.371Z,19.92
2018-06-08T10:45:58.698Z,18.62
2018-06-08T10:48:26.905Z,16.73
2018-06-08T10:50:55.381Z,17.80
2018-06-08T10:53:23.648Z,18.90
2018-06-08T10:55:51.868Z,19.20
2018-06-08T10:58:20.145Z,15.65
2018-06-08T11:00:48.367Z,14.83
2018-06-08T11:03:16.577Z,16.65
2018-06-08T11:05:44.797Z,14.50
2018-06-08T11:08:13.047Z,14.03
2018-06-08T11:10:41.304Z,13.32
2018-06-08T11:13:09.506Z,13.35
2018-06-08T11:15:37.742Z,15.30
2018-06-08T11:18:05.926Z,14.33
2018-06-08T11:20:34.228Z,14.78
2018-06-08T11:23:02.449Z,14.00
2018-06-08T11:25:30.638Z,12.82
2018-06-08T11:27:58.874Z,11.50
2018-06-08T11:30:27.098Z,14.85
2018-06-08T11:32:55.318Z,13.22
2018-06-08T11:35:23.565Z,13.98
2018-06-08T11:37:51.746Z,13.45
2018-06-08T11:40:19.981Z,12.60
2018-06-08T11:42:48.170Z,12.28
2018-06-08T11:45:16.412Z,11.43
2018-06-08T11:47:44.639Z,11.05
2018-06-08T11:50:12.815Z,10.10
2018-06-08T11:52:41.059Z,9.80
2018-06-08T11:55:09.256Z,9.20
2018-06-08T11:57:37.502Z,9.30
2018-06-08T12:00:05.762Z,9.30
2018-06-08T12:02:34.005Z,9.43
2018-06-08T12:05:02.254Z,9.10
2018-06-08T12:07:30.552Z,9.60
2018-06-08T12:09:58.798Z,9.58
2018-06-08T12:12:27.035Z,9.03
2018-06-08T12:14:55.244Z,9.63
2018-06-08T12:17:23.494Z,8.30
2018-06-08T12:19:51.701Z,7.80
2018-06-08T12:22:19.939Z,8.30
2018-06-08T12:24:48.190Z,8.50
2018-06-08T12:27:16.399Z,9.13
2018-06-08T12:29:44.653Z,8.30
2018-06-08T12:32:12.907Z,8.13
2018-06-08T12:34:41.138Z,8.60
2018-06-08T12:37:09.382Z,7.95
2018-06-08T12:39:37.611Z,8.43
2018-06-08T12:42:05.967Z,8.20
2018-06-08T12:44:34.199Z,7.62
2018-06-08T12:47:02.462Z,8.50
2018-06-08T12:49:30.797Z,9.03
2018-06-08T12:51:58.986Z,8.30
2018-06-08T12:54:27.209Z,9.40
2018-06-08T12:56:55.414Z,7.80
2018-06-08T12:59:23.710Z,7.47
2018-06-08T13:01:51.948Z,9.03
2018-06-08T13:04:20.178Z,8.10
2018-06-08T13:06:48.437Z,9.73
2018-06-08T13:09:16.652Z,9.60
2018-06-08T13:11:44.926Z,9.30
2018-06-08T13:14:13.173Z,8.70
2018-06-08T13:16:41.390Z,7.35
2018-06-08T13:19:09.653Z,7.87
2018-06-08T13:21:37.837Z,8.00
2018-06-08T13:24:06.213Z,8.08
2018-06-08T13:26:34.486Z,7.75
2018-06-08T13:29:02.751Z,8.40
2018-06-08T13:31:31.006Z,9.30
2018-06-08T13:33:59.237Z,11.30
2018-06-08T13:36:27.462Z,9.23
2018-06-08T13:38:55.698Z,10.40
2018-06-08T13:41:23.896Z,8.75
2018-06-08T13:43:52.129Z,6.97
2018-06-08T13:46:31.196Z,7.72
2018-06-08T13:48:59.477Z,7.80
2018-06-08T13:51:27.710Z,8.53
2018-06-08T13:53:55.905Z,8.95
2018-06-08T13:56:24.137Z,9.63
2018-06-08T13:58:52.390Z,7.57
2018-06-08T14:01:20.630Z,7.08
2018-06-08T14:03:48.878Z,6.55
2018-06-08T14:06:17.109Z,6.30
2018-06-08T14:08:45.359Z,6.42
2018-06-08T14:11:13.587Z,6.70
2018-06-08T14:13:41.846Z,7.03
2018-06-08T14:16:10.062Z,6.60
2018-06-08T14:18:38.302Z,8.70
2018-06-08T14:21:06.627Z,5.50
2018-06-08T14:23:34.844Z,6.30
2018-06-08T14:26:03.135Z,5.90
2018-06-08T14:28:31.389Z,6.05
2018-06-08T14:30:59.636Z,6.30
2018-06-08T14:33:27.869Z,6.40
2018-06-08T14:35:56.114Z,6.67
2018-06-08T14:38:24.350Z,9.15
2018-06-08T14:40:52.634Z,6.73
2018-06-08T14:43:20.841Z,6.47
2018-06-08T14:45:49.082Z,5.90
2018-06-08T14:48:18.217Z,6.00
2018-06-08T14:50:46.444Z,6.35
2018-06-08T14:53:14.710Z,6.03
2018-06-08T14:55:42.938Z,6.37
2018-06-08T14:58:11.153Z,6.83
2018-06-08T15:00:39.398Z,6.60
2018-06-08T15:03:07.636Z,7.33
2018-06-08T15:05:35.896Z,6.35
2018-06-08T15:08:04.186Z,10.50
2018-06-08T15:10:32.416Z,6.50
2018-06-08T15:13:00.638Z,6.08
2018-06-08T15:15:28.874Z,8.20
2018-06-08T15:17:57.118Z,6.78
2018-06-08T15:20:25.340Z,9.33
2018-06-08T15:22:53.581Z,5.62
2018-06-08T15:25:21.795Z,7.05
2018-06-08T15:27:50.052Z,10.00
2018-06-08T15:30:18.280Z,5.03
2018-06-08T15:32:46.480Z,5.47
2018-06-08T15:35:14.700Z,13.30
2018-06-08T15:37:49.669Z,9.98
2018-06-08T15:40:17.917Z,9.68
2018-06-08T15:42:46.142Z,7.90
2018-06-08T15:45:14.321Z,10.38
2018-06-08T15:47:43.233Z,5.97
2018-06-08T15:50:11.461Z,8.00
2018-06-08T15:52:39.717Z,8.58
2018-06-08T15:55:07.987Z,6.67
2018-06-08T15:57:36.210Z,10.13
2018-06-08T16:00:04.903Z,6.05
2018-06-08T16:02:33.090Z,5.45
2018-06-08T16:05:01.309Z,6.75
2018-06-08T16:07:29.579Z,9.10
2018-06-08T16:09:57.765Z,7.03
2018-06-08T16:12:25.982Z,5.33
2018-06-08T16:14:54.573Z,9.60
2018-06-08T16:17:23.159Z,5.83
2018-06-08T16:19:51.502Z,9.43
2018-06-08T16:22:19.725Z,7.00
2018-06-08T16:24:47.972Z,8.08
2018-06-08T16:27:16.195Z,8.95
2018-06-08T16:29:44.494Z,8.83
2018-06-08T16:32:12.746Z,17.80
2018-06-08T16:34:40.948Z,11.55
2018-06-08T16:37:09.245Z,6.10
2018-06-08T16:39:37.475Z,8.03
2018-06-08T16:42:05.686Z,6.58
2018-06-08T16:44:33.924Z,8.70
2018-06-08T16:47:02.207Z,5.87
2018-06-08T16:49:30.431Z,6.67
2018-06-08T16:51:58.662Z,6.15
2018-06-08T16:54:26.904Z,11.53
2018-06-08T16:56:55.095Z,6.65
2018-06-08T16:59:23.469Z,8.47
2018-06-08T17:01:51.734Z,12.05
2018-06-08T17:04:19.905Z,6.75
2018-06-08T17:06:48.126Z,8.95
2018-06-08T17:09:16.313Z,7.90
2018-06-08T17:11:44.537Z,8.30
2018-06-08T17:14:12.781Z,7.20
2018-06-08T17:16:41.006Z,7.83
2018-06-08T17:19:09.225Z,5.35
2018-06-08T17:21:37.458Z,6.75
2018-06-08T17:24:05.717Z,7.33
2018-06-08T17:26:33.930Z,5.90
2018-06-08T17:29:02.144Z,6.17
2018-06-08T17:31:30.334Z,9.60
2018-06-08T17:33:58.617Z,6.72
2018-06-08T17:36:26.829Z,10.43
2018-06-08T17:38:55.049Z,9.78
2018-06-08T17:41:23.273Z,6.58
2018-06-08T17:43:51.465Z,7.37
2018-06-08T17:46:19.849Z,6.00
2018-06-08T17:48:48.078Z,7.28
2018-06-08T17:51:16.289Z,5.53
2018-06-08T17:53:44.509Z,7.62
2018-06-08T17:56:12.714Z,6.08
2018-06-08T17:58:40.984Z,9.40
2018-06-08T18:01:09.223Z,7.53
2018-06-08T18:03:37.446Z,7.47
2018-06-08T18:06:05.726Z,9.95
2018-06-08T18:08:33.965Z,8.00
2018-06-08T18:11:02.217Z,7.35
2018-06-08T18:13:30.433Z,7.72
2018-06-08T18:15:58.722Z,6.87
2018-06-08T18:18:26.938Z,6.37
2018-06-08T18:20:55.170Z,8.53
2018-06-08T18:23:23.453Z,6.80
2018-06-08T18:25:51.666Z,8.85
2018-06-08T18:28:19.910Z,7.42
2018-06-08T18:30:48.125Z,8.48
2018-06-08T18:33:16.461Z,6.70
2018-06-08T18:35:44.638Z,7.83
2018-06-08T18:38:12.881Z,9.70
2018-06-08T18:40:41.077Z,6.58
2018-06-08T18:43:09.347Z,10.70
2018-06-08T18:45:37.656Z,7.42
2018-06-08T18:48:06.069Z,9.50
2018-06-08T18:50:34.373Z,6.78
2018-06-08T18:53:02.564Z,6.47
2018-06-08T18:55:30.791Z,6.92
2018-06-08T18:57:59.037Z,6.62
2018-06-08T19:00:27.284Z,6.70
2018-06-08T19:02:55.598Z,7.42
2018-06-08T19:05:23.821Z,7.00
2018-06-08T19:07:52.057Z,8.53
2018-06-08T19:10:20.294Z,8.90
2018-06-08T19:12:48.586Z,7.25
2018-06-08T19:15:16.856Z,8.10
2018-06-08T19:17:45.054Z,8.85
2018-06-08T19:20:13.279Z,6.72
2018-06-08T19:22:41.787Z,6.85
2018-06-08T19:25:10.066Z,7.60
2018-06-08T19:27:38.401Z,7.72
2018-06-08T19:30:06.630Z,8.68
2018-06-08T19:32:34.907Z,7.50
2018-06-08T19:35:03.277Z,6.50
2018-06-08T19:37:31.521Z,5.33
2018-06-08T19:39:59.778Z,6.00
2018-06-08T19:42:28.900Z,5.92
2018-06-08T19:44:57.170Z,5.35
2018-06-08T19:47:25.408Z,5.83
2018-06-08T19:49:53.697Z,6.53
2018-06-08T19:52:21.901Z,5.50
2018-06-08T19:54:50.123Z,8.10
2018-06-08T19:57:18.379Z,5.10
2018-06-08T19:59:46.610Z,4.70
2018-06-08T20:02:14.869Z,5.53
2018-06-08T20:04:43.149Z,7.95
2018-06-08T20:07:11.365Z,5.03
2018-06-08T20:09:39.645Z,5.67
2018-06-08T20:12:07.865Z,6.50
2018-06-08T20:14:35.852Z,5.12
2018-06-08T20:17:04.337Z,3.30
2018-06-08T20:19:32.540Z,5.05
2018-06-08T20:22:00.765Z,3.58
2018-06-08T20:24:28.959Z,5.10
2018-06-08T20:26:57.190Z,5.00
2018-06-08T20:29:25.377Z,3.62
2018-06-08T20:31:53.598Z,4.20
2018-06-08T20:34:21.837Z,5.05
2018-06-08T20:36:50.058Z,4.45
2018-06-08T20:39:18.254Z,3.47
2018-06-08T20:41:46.481Z,5.22
2018-06-08T20:44:14.687Z,5.30
2018-06-08T20:46:42.917Z,3.75
2018-06-08T20:49:11.117Z,4.22
2018-06-08T20:51:39.358Z,6.95
2018-06-08T20:54:07.617Z,4.30
2018-06-08T20:56:35.806Z,4.45
2018-06-08T20:59:04.046Z,5.70
2018-06-08T21:01:32.246Z,6.78
2018-06-08T21:04:00.767Z,4.62
2018-06-08T21:06:28.985Z,3.80
2018-06-08T21:08:57.193Z,5.95
2018-06-08T21:11:25.411Z,4.10
2018-06-08T21:13:53.706Z,4.65
2018-06-08T21:16:21.996Z,4.05
2018-06-08T21:18:50.215Z,4.50
2018-06-08T21:21:18.402Z,6.60
2018-06-08T21:23:46.726Z,4.33
2018-06-08T21:26:14.913Z,4.40
2018-06-08T21:28:43.137Z,3.87
2018-06-08T21:31:11.478Z,6.90
2018-06-08T21:33:39.669Z,5.00
2018-06-08T21:36:07.939Z,5.05
2018-06-08T21:38:36.142Z,5.35
2018-06-08T21:41:04.375Z,5.80
2018-06-08T21:43:32.606Z,7.95
2018-06-08T21:46:00.833Z,4.90
2018-06-08T21:48:29.099Z,6.70
2018-06-08T21:50:57.304Z,6.37
2018-06-08T21:53:25.517Z,4.97
2018-06-08T21:55:53.793Z,5.22
2018-06-08T21:58:21.989Z,6.70
2018-06-08T22:00:50.262Z,4.60
2018-06-08T22:03:18.588Z,4.87
2018-06-08T22:05:46.902Z,4.75
2018-06-08T22:08:15.138Z,6.37
2018-06-08T22:10:43.329Z,4.65
2018-06-08T22:13:11.549Z,4.40
2018-06-08T22:15:39.766Z,6.40
2018-06-08T22:18:08.038Z,6.42
2018-06-08T22:20:36.273Z,6.30
2018-06-08T22:23:04.448Z,6.78
2018-06-08T22:25:32.691Z,6.30
2018-06-08T22:28:01.089Z,6.47
2018-06-08T22:30:29.317Z,4.40
2018-06-08T22:32:57.566Z,8.47
2018-06-08T22:35:25.757Z,5.90
2018-06-08T22:37:53.985Z,5.33
2018-06-08T22:40:22.165Z,6.35
2018-06-08T22:42:50.398Z,6.53
2018-06-08T22:45:18.613Z,4.97
2018-06-08T22:47:46.806Z,6.00
2018-06-08T22:50:15.043Z,5.03
2018-06-08T22:52:43.226Z,5.25
2018-06-08T22:55:11.441Z,5.15
2018-06-08T22:57:39.673Z,6.30
2018-06-08T23:00:08.382Z,5.17
2018-06-08T23:02:36.589Z,5.60
2018-06-08T23:05:04.885Z,7.35
2018-06-08T23:07:33.150Z,5.97
2018-06-08T23:10:01.401Z,6.50
2018-06-08T23:12:29.605Z,5.47
2018-06-08T23:14:57.838Z,5.70
2018-06-08T23:17:26.016Z,6.30
2018-06-08T23:19:54.238Z,6.25
2018-06-08T23:22:22.461Z,7.17
2018-06-08T23:24:50.637Z,6.55
2018-06-08T23:27:18.856Z,4.65
2018-06-08T23:29:47.020Z,4.20
2018-06-08T23:32:15.253Z,4.40
2018-06-08T23:34:43.469Z,4.65
2018-06-08T23:37:11.646Z,5.10
2018-06-08T23:39:39.873Z,4.72
2018-06-08T23:42:08.063Z,5.10
2018-06-08T23:44:36.296Z,4.80
2018-06-08T23:47:04.533Z,7.17
2018-06-08T23:49:32.726Z,5.85
2018-06-08T23:52:00.949Z,5.72
2018-06-08T23:54:29.150Z,5.65
2018-06-08T23:56:57.369Z,7.35
2018-06-08T23:59:25.582Z,6.03
